Eldorado — PEEA — position and weather

sailwx.info

Track history (hours):
 
Tides and Currents Weather Stations Pressure Air Temp Water Temp Dewpoint Dewpoint Depression Visibility Wind Speed Wind Dir Waves Ship Positions

Eldorado

Last reported at 2017-Nov-02 14:37 UTC. Time now 2017-Nov-23 07:41 UTC.
Position N 18°02' W 063°08'.
Warning: this ship's position is 20 days out of date.

Length 38 m; draft 3 m.

Type: Sailing vessel. MMSI: 244670000.

Date/timePositionNaut miles runAvg speedWind from/ knotsBaromVisibWave heightAir tempDewpointWater temp
2017-Nov-02 14:37N 18°02' W 063°08'1 7.3
2017-Nov-02 14:27N 18°01' W 063°06'  
2017-Oct-24 20:12N 16°55' W 062°31'5 7.9
2017-Oct-24 19:38N 16°51' W 062°28'3 8.2
2017-Oct-24 19:17N 16°49' W 062°27'2 8.4
2017-Oct-24 19:00N 16°47' W 062°25'4 8.2
2017-Oct-24 18:30N 16°44' W 062°23'4 8.4
2017-Oct-24 18:00N 16°40' W 062°20'4 8.4
2017-Oct-24 17:28N 16°37' W 062°18'4 8.2
2017-Oct-24 17:00N 16°34' W 062°15'4 8.0
2017-Oct-24 16:30N 16°31' W 062°12'4 8.2
2017-Oct-24 16:00N 16°28' W 062°09'4 8.5
2017-Oct-24 15:30N 16°25' W 062°06'4 8.6
2017-Oct-24 15:00N 16°22' W 062°03'4 8.5
2017-Oct-24 14:30N 16°19' W 061°60'4 8.4
2017-Oct-24 14:00N 16°16' W 061°57'4 8.1
2017-Oct-24 13:30N 16°12' W 061°54'7 8.1
2017-Oct-24 12:40N 16°07' W 061°50'3 7.7
2017-Oct-24 12:19N 16°04' W 061°49'2 7.7
2017-Oct-24 12:00N 16°03' W 061°47'18 1.7
2017-Oct-24 01:35N 15°45' W 061°43'1 8.0
2017-Oct-24 01:29N 15°44' W 061°42'4 7.7
2017-Oct-24 00:56N 15°41' W 061°40'  
Track history (hours):
 
Tides and Currents Weather Stations Pressure Air Temp Water Temp Dewpoint Dewpoint Depression Visibility Wind Speed Wind Dir Waves Ship Positions

Eldorado

Last reported at 2017-Nov-02 14:37 UTC. Time now 2017-Nov-23 07:41 UTC.
Position N 18°02' W 063°08'.
Warning: this ship's position is 20 days out of date.

Length 38 m; draft 3 m.

Type: Sailing vessel. MMSI: 244670000.

Date/timePositionNaut miles runAvg speedWind from/ knotsBaromVisibWave heightAir tempDewpointWater temp
2017-Nov-02 14:37N 18°02' W 063°08'1 7.3
2017-Nov-02 14:27N 18°01' W 063°06'  
2017-Oct-24 20:12N 16°55' W 062°31'5 7.9
2017-Oct-24 19:38N 16°51' W 062°28'3 8.2
2017-Oct-24 19:17N 16°49' W 062°27'2 8.4
2017-Oct-24 19:00N 16°47' W 062°25'4 8.2
2017-Oct-24 18:30N 16°44' W 062°23'4 8.4
2017-Oct-24 18:00N 16°40' W 062°20'4 8.4
2017-Oct-24 17:28N 16°37' W 062°18'4 8.2
2017-Oct-24 17:00N 16°34' W 062°15'4 8.0
2017-Oct-24 16:30N 16°31' W 062°12'4 8.2
2017-Oct-24 16:00N 16°28' W 062°09'4 8.5
2017-Oct-24 15:30N 16°25' W 062°06'4 8.6
2017-Oct-24 15:00N 16°22' W 062°03'4 8.5
2017-Oct-24 14:30N 16°19' W 061°60'4 8.4
2017-Oct-24 14:00N 16°16' W 061°57'4 8.1
2017-Oct-24 13:30N 16°12' W 061°54'7 8.1
2017-Oct-24 12:40N 16°07' W 061°50'3 7.7
2017-Oct-24 12:19N 16°04' W 061°49'2 7.7
2017-Oct-24 12:00N 16°03' W 061°47'18 1.7
2017-Oct-24 01:35N 15°45' W 061°43'1 8.0
2017-Oct-24 01:29N 15°44' W 061°42'4 7.7
2017-Oct-24 00:56N 15°41' W 061°40'  

Dump ship's entire track history